createdAt,value
2024-01-20T00:00:32.906Z,19.03
2024-01-20T00:03:01.506Z,17.53
2024-01-20T00:05:30.293Z,21.20
2024-01-20T00:07:59.173Z,21.23
2024-01-20T00:10:27.929Z,16.47
2024-01-20T00:12:56.761Z,18.60
2024-01-20T00:15:25.797Z,18.77
2024-01-20T00:17:56.067Z,21.67
2024-01-20T00:20:25.405Z,19.43
2024-01-20T00:22:54.277Z,17.73
2024-01-20T00:25:23.088Z,19.47
2024-01-20T00:27:51.766Z,23.40
2024-01-20T00:30:23.900Z,19.00
2024-01-20T00:32:52.862Z,21.67
2024-01-20T00:35:23.134Z,18.83
2024-01-20T00:37:51.876Z,18.67
2024-01-20T00:40:20.511Z,19.77
2024-01-20T00:42:49.673Z,18.80
2024-01-20T00:45:18.279Z,20.60
2024-01-20T00:47:47.380Z,14.70
2024-01-20T00:50:15.999Z,15.03
2024-01-20T00:52:46.034Z,15.47
2024-01-20T00:55:14.817Z,14.47
2024-01-20T00:57:44.053Z,14.73
2024-01-20T01:00:13.183Z,17.33
2024-01-20T01:02:43.022Z,18.23
2024-01-20T01:05:11.908Z,14.70
2024-01-20T01:07:40.748Z,15.60
2024-01-20T01:10:11.361Z,12.90
2024-01-20T01:12:40.022Z,15.33
2024-01-20T01:15:08.969Z,13.80
2024-01-20T01:17:37.652Z,12.67
2024-01-20T01:20:07.040Z,13.70
2024-01-20T01:22:35.703Z,13.37
2024-01-20T01:25:05.121Z,15.20
2024-01-20T01:27:35.037Z,13.73
2024-01-20T01:30:03.687Z,10.40
2024-01-20T01:32:32.339Z,14.50
2024-01-20T01:35:01.104Z,11.27
2024-01-20T01:37:29.851Z,11.33
2024-01-20T01:39:58.460Z,11.57
2024-01-20T01:42:27.108Z,14.60
2024-01-20T01:44:57.130Z,13.27
2024-01-20T01:47:25.724Z,12.13
2024-01-20T01:49:55.122Z,15.87
2024-01-20T01:52:25.451Z,13.50
2024-01-20T01:54:54.317Z,13.10
2024-01-20T01:57:24.236Z,11.77
2024-01-20T01:59:52.951Z,13.07
2024-01-20T02:02:23.344Z,17.00
2024-01-20T02:04:52.038Z,10.93
2024-01-20T02:07:20.872Z,12.77
2024-01-20T02:09:51.634Z,11.20
2024-01-20T02:12:20.400Z,12.07
2024-01-20T02:14:49.967Z,12.63
2024-01-20T02:17:18.622Z,12.67
2024-01-20T02:19:48.594Z,13.30
2024-01-20T02:22:19.046Z,11.30
2024-01-20T02:24:49.976Z,10.73
2024-01-20T02:27:20.478Z,12.10
2024-01-20T02:29:49.152Z,9.47
2024-01-20T02:32:17.750Z,11.40
2024-01-20T02:34:46.445Z,12.37
2024-01-20T02:37:15.359Z,14.43
2024-01-20T02:39:46.154Z,11.17
2024-01-20T02:42:14.850Z,11.10
2024-01-20T02:44:44.184Z,11.53
2024-01-20T02:47:13.374Z,10.10
2024-01-20T02:49:42.470Z,12.30
2024-01-20T02:52:11.332Z,13.77
2024-01-20T02:54:40.001Z,11.03
2024-01-20T02:57:10.195Z,13.73
2024-01-20T02:59:38.943Z,15.07
2024-01-20T03:02:07.473Z,13.10
2024-01-20T03:04:36.205Z,15.80
2024-01-20T03:07:05.371Z,11.57
2024-01-20T03:09:34.074Z,13.63
2024-01-20T03:12:03.167Z,11.97
2024-01-20T03:14:33.234Z,12.23
2024-01-20T03:17:01.907Z,13.20
2024-01-20T03:19:30.616Z,11.53
2024-01-20T03:21:59.217Z,10.77
2024-01-20T03:24:28.042Z,13.57
2024-01-20T03:26:59.584Z,11.20
2024-01-20T03:29:28.638Z,11.80
2024-01-20T03:31:58.856Z,11.37
2024-01-20T03:34:27.734Z,13.17
2024-01-20T03:36:56.429Z,14.40
2024-01-20T03:39:25.050Z,12.40
2024-01-20T03:41:53.611Z,12.40
2024-01-20T03:44:22.779Z,13.10
2024-01-20T03:46:51.320Z,12.93
2024-01-20T03:49:21.574Z,12.03
2024-01-20T03:51:50.324Z,16.70
2024-01-20T03:54:18.962Z,10.93
2024-01-20T03:56:47.877Z,16.80
2024-01-20T03:59:16.518Z,13.40
2024-01-20T04:01:45.159Z,12.97
2024-01-20T04:04:13.817Z,12.73
2024-01-20T04:06:43.990Z,10.53
2024-01-20T04:09:12.860Z,10.73
2024-01-20T04:11:41.465Z,13.10
2024-01-20T04:14:10.085Z,13.63
2024-01-20T04:16:39.228Z,14.37
2024-01-20T04:19:07.875Z,11.23
2024-01-20T04:21:36.942Z,12.00
2024-01-20T04:24:07.406Z,13.03
2024-01-20T04:26:36.248Z,14.37
2024-01-20T04:29:04.884Z,16.53
2024-01-20T04:31:33.825Z,18.30
2024-01-20T04:34:02.343Z,14.03
2024-01-20T04:36:31.014Z,9.63
2024-01-20T04:38:59.708Z,15.87
2024-01-20T04:41:29.685Z,13.00
2024-01-20T04:43:58.334Z,12.13
2024-01-20T04:46:26.984Z,14.03
2024-01-20T04:48:55.731Z,13.07
2024-01-20T04:51:25.270Z,14.23
2024-01-20T04:53:54.162Z,14.80
2024-01-20T04:56:24.106Z,16.50
2024-01-20T04:58:55.120Z,16.70
2024-01-20T05:01:23.776Z,11.47
2024-01-20T05:03:54.256Z,12.37
2024-01-20T05:06:23.072Z,13.40
2024-01-20T05:08:51.704Z,13.90
2024-01-20T05:11:20.348Z,16.03
2024-01-20T05:13:48.960Z,16.60
2024-01-20T05:16:19.964Z,12.63
2024-01-20T05:18:49.843Z,13.80
2024-01-20T05:21:18.746Z,13.73
2024-01-20T05:23:47.665Z,17.87
2024-01-20T05:26:16.673Z,14.33
2024-01-20T05:28:45.296Z,10.37
2024-01-20T05:31:13.923Z,16.20
2024-01-20T05:33:43.919Z,14.90
2024-01-20T05:36:13.931Z,15.37
2024-01-20T05:38:42.677Z,15.23
2024-01-20T05:41:11.753Z,13.83
2024-01-20T05:43:40.398Z,12.90
2024-01-20T05:46:09.132Z,17.07
2024-01-20T05:48:37.884Z,15.10
2024-01-20T05:51:08.203Z,10.90
2024-01-20T05:53:36.820Z,12.97
2024-01-20T05:56:05.843Z,16.17
2024-01-20T05:58:34.477Z,13.53
2024-01-20T06:01:03.324Z,13.80
2024-01-20T06:03:32.293Z,14.07
2024-01-20T06:06:00.786Z,15.23
2024-01-20T06:08:30.724Z,17.50
2024-01-20T06:10:59.247Z,19.00
2024-01-20T06:13:27.828Z,14.43
2024-01-20T06:15:56.335Z,12.83
2024-01-20T06:18:25.044Z,17.47
2024-01-20T06:20:54.233Z,15.27
2024-01-20T06:23:22.828Z,16.97
2024-01-20T06:25:52.864Z,16.50
2024-01-20T06:28:22.744Z,16.47
2024-01-20T06:30:51.687Z,14.47
2024-01-20T06:33:20.339Z,13.17
2024-01-20T06:35:48.971Z,14.17
2024-01-20T06:38:17.846Z,12.07
2024-01-20T06:40:46.289Z,19.03
2024-01-20T06:43:16.315Z,21.13
2024-01-20T06:45:47.258Z,16.47
2024-01-20T06:48:15.949Z,11.90
2024-01-20T06:50:45.282Z,16.40
2024-01-20T06:53:14.240Z,14.03
2024-01-20T06:55:42.932Z,13.97
2024-01-20T06:58:12.023Z,14.87
2024-01-20T07:00:42.131Z,17.27
2024-01-20T07:03:11.958Z,18.43
2024-01-20T07:05:40.511Z,16.63
2024-01-20T07:08:09.532Z,15.70
2024-01-20T07:10:38.093Z,15.27
2024-01-20T07:13:06.703Z,13.37
2024-01-20T07:15:35.440Z,14.67
2024-01-20T07:18:06.469Z,16.37
2024-01-20T07:20:35.501Z,15.83
2024-01-20T07:23:04.306Z,16.97
2024-01-20T07:25:37.487Z,18.27
2024-01-20T07:28:06.243Z,19.27
2024-01-20T07:30:34.891Z,15.57
2024-01-20T07:33:05.243Z,18.67
2024-01-20T07:35:34.262Z,17.57
2024-01-20T07:38:02.936Z,21.17
2024-01-20T07:40:31.788Z,17.27
2024-01-20T07:43:00.424Z,16.43
2024-01-20T07:45:28.972Z,16.17
2024-01-20T07:47:58.019Z,18.17
2024-01-20T07:50:28.304Z,18.63
2024-01-20T07:52:56.980Z,16.43
2024-01-20T07:55:25.638Z,17.13
2024-01-20T07:57:54.663Z,22.57
2024-01-20T08:00:23.553Z,22.87
2024-01-20T08:02:52.106Z,33.67
2024-01-20T08:05:21.224Z,27.97
2024-01-20T08:07:50.993Z,22.47
2024-01-20T08:10:19.677Z,18.27
2024-01-20T08:12:48.545Z,23.77
2024-01-20T08:15:17.165Z,17.47
2024-01-20T08:17:45.829Z,19.50
2024-01-20T08:20:14.506Z,16.43
2024-01-20T08:22:43.062Z,20.37
2024-01-20T08:25:14.589Z,18.27
2024-01-20T08:27:43.511Z,19.30
2024-01-20T08:30:13.201Z,17.60
2024-01-20T08:32:42.669Z,19.00
2024-01-20T08:35:12.149Z,18.80
2024-01-20T08:37:40.780Z,15.30
2024-01-20T08:40:10.084Z,17.13
2024-01-20T08:42:39.993Z,16.57
2024-01-20T08:45:09.740Z,19.10
2024-01-20T08:47:38.500Z,19.17
2024-01-20T08:50:07.540Z,18.57
2024-01-20T08:52:36.198Z,17.73
2024-01-20T08:55:05.380Z,15.37
2024-01-20T08:57:34.737Z,17.43
2024-01-20T09:00:06.764Z,19.20
2024-01-20T09:02:35.608Z,14.07
2024-01-20T09:05:04.759Z,23.60
2024-01-20T09:07:33.507Z,14.53
2024-01-20T09:10:03.977Z,18.43
2024-01-20T09:12:32.697Z,17.80
2024-01-20T09:15:01.461Z,16.83
2024-01-20T09:17:31.520Z,15.33
2024-01-20T09:20:00.356Z,15.40
2024-01-20T09:22:29.384Z,16.27
2024-01-20T09:24:57.828Z,16.60
2024-01-20T09:27:26.464Z,15.77
2024-01-20T09:29:55.439Z,14.90
2024-01-20T09:32:23.939Z,17.43
2024-01-20T09:34:53.896Z,17.93
2024-01-20T09:37:22.562Z,15.57
2024-01-20T09:39:51.518Z,17.67
2024-01-20T09:42:20.629Z,16.93
2024-01-20T09:44:49.378Z,13.57
2024-01-20T09:47:18.114Z,16.40
2024-01-20T09:49:46.998Z,20.97
2024-01-20T09:52:27.881Z,18.70
2024-01-20T09:55:04.539Z,13.93
2024-01-20T09:57:34.917Z,16.73
2024-01-20T10:00:06.008Z,15.23
2024-01-20T10:02:41.391Z,17.37
2024-01-20T10:05:12.337Z,14.77
2024-01-20T10:07:42.860Z,17.80
2024-01-20T10:10:20.160Z,16.27
2024-01-20T10:12:52.671Z,13.60
2024-01-20T10:15:23.632Z,19.53
2024-01-20T10:17:52.374Z,16.63
2024-01-20T10:20:21.945Z,16.13
2024-01-20T10:22:52.520Z,15.03
2024-01-20T10:25:21.506Z,18.20
2024-01-20T10:27:51.445Z,17.03
2024-01-20T10:30:22.064Z,18.97
2024-01-20T10:35:22.969Z,14.10
2024-01-20T10:37:55.859Z,15.33
2024-01-20T10:40:24.508Z,15.50
2024-01-20T10:42:58.080Z,16.37
2024-01-20T10:45:27.501Z,22.10
2024-01-20T10:48:06.882Z,14.57
2024-01-20T10:50:40.687Z,15.67
2024-01-20T10:53:10.775Z,14.00
2024-01-20T10:55:41.977Z,15.70
2024-01-20T10:58:12.532Z,20.43
2024-01-20T11:00:42.614Z,16.83
2024-01-20T11:03:11.685Z,17.40
2024-01-20T11:05:40.371Z,15.77
2024-01-20T11:08:10.775Z,12.93
2024-01-20T11:10:43.329Z,14.70
2024-01-20T11:13:13.353Z,15.47
2024-01-20T11:15:42.896Z,19.83
2024-01-20T11:18:18.920Z,15.10
2024-01-20T11:20:59.230Z,16.37
2024-01-20T11:23:29.685Z,13.40
2024-01-20T11:26:00.382Z,15.87
2024-01-20T11:28:32.901Z,19.10
2024-01-20T11:31:01.984Z,20.23
2024-01-20T11:33:32.529Z,15.80
2024-01-20T11:36:02.385Z,14.30
2024-01-20T11:38:34.508Z,16.07
2024-01-20T11:41:04.476Z,16.43
2024-01-20T11:43:33.156Z,13.73
2024-01-20T11:46:03.513Z,17.63
2024-01-20T11:48:32.860Z,18.27
2024-01-20T11:51:02.790Z,19.07
2024-01-20T11:53:32.901Z,15.83
2024-01-20T11:56:04.176Z,15.60
2024-01-20T11:58:33.121Z,15.70
2024-01-20T12:01:02.767Z,13.97
2024-01-20T12:03:32.166Z,14.97
2024-01-20T12:06:07.037Z,15.03
2024-01-20T12:08:38.113Z,14.57
2024-01-20T12:11:06.762Z,15.50
2024-01-20T12:13:36.777Z,15.47
2024-01-20T12:16:06.299Z,13.57
2024-01-20T12:18:35.256Z,15.67
2024-01-20T12:21:05.344Z,16.63
2024-01-20T12:23:33.960Z,15.17
2024-01-20T12:26:03.865Z,15.50
2024-01-20T12:28:33.490Z,15.20
2024-01-20T12:31:02.449Z,16.07
2024-01-20T12:33:31.088Z,16.17
2024-01-20T12:35:59.735Z,13.60
2024-01-20T12:38:28.239Z,14.90
2024-01-20T12:40:56.720Z,12.03
2024-01-20T12:43:26.621Z,13.73
2024-01-20T12:45:55.165Z,13.80
2024-01-20T12:48:23.813Z,14.27
2024-01-20T12:50:52.824Z,16.73
2024-01-20T12:53:21.229Z,15.43
2024-01-20T12:55:49.881Z,17.03
2024-01-20T12:58:18.367Z,18.63
2024-01-20T13:00:48.544Z,19.77
2024-01-20T13:03:17.746Z,18.07
2024-01-20T13:05:46.912Z,17.47
2024-01-20T13:08:15.426Z,12.30
2024-01-20T13:10:47.140Z,16.77
2024-01-20T13:13:15.738Z,16.63
2024-01-20T13:15:44.451Z,16.00
2024-01-20T13:18:17.807Z,14.87
2024-01-20T13:20:46.392Z,12.90
2024-01-20T13:23:14.865Z,11.27
2024-01-20T13:25:43.349Z,13.63
2024-01-20T13:28:14.306Z,11.73
2024-01-20T13:30:43.126Z,11.10
2024-01-20T13:33:12.395Z,14.83
2024-01-20T13:35:42.409Z,15.73
2024-01-20T13:38:11.170Z,13.43
2024-01-20T13:40:41.214Z,12.43
2024-01-20T13:43:09.662Z,16.10
2024-01-20T13:45:38.313Z,11.40
2024-01-20T13:48:08.416Z,12.70
2024-01-20T13:50:37.026Z,14.53
2024-01-20T13:53:07.020Z,15.50
2024-01-20T13:55:35.623Z,18.27
2024-01-20T13:58:04.288Z,11.10
2024-01-20T14:00:32.950Z,14.17
2024-01-20T14:03:01.637Z,11.60
2024-01-20T14:05:30.291Z,13.80
2024-01-20T14:07:58.951Z,10.23
2024-01-20T14:10:28.846Z,12.67
2024-01-20T14:13:00.051Z,10.30
2024-01-20T14:15:29.574Z,13.57
2024-01-20T14:17:58.293Z,10.40
2024-01-20T14:20:27.020Z,11.90
2024-01-20T14:22:55.496Z,11.80
2024-01-20T14:25:24.129Z,13.57
2024-01-20T14:27:53.957Z,15.57
2024-01-20T14:30:22.564Z,11.70
2024-01-20T14:32:51.453Z,13.17
2024-01-20T14:35:20.013Z,13.97
2024-01-20T14:37:48.588Z,12.33
2024-01-20T14:40:17.212Z,12.53
2024-01-20T14:42:45.787Z,17.20
2024-01-20T14:45:16.006Z,15.07
2024-01-20T14:47:46.167Z,14.17
2024-01-20T14:50:14.650Z,14.03
2024-01-20T14:52:43.156Z,14.30
2024-01-20T14:55:12.423Z,11.23
2024-01-20T14:57:40.960Z,16.47
2024-01-20T15:00:10.604Z,12.80
2024-01-20T15:02:40.963Z,13.87
2024-01-20T15:05:10.182Z,14.83
2024-01-20T15:07:38.678Z,15.23
2024-01-20T15:10:08.207Z,11.87
2024-01-20T15:12:36.882Z,12.77
2024-01-20T15:15:06.540Z,13.50
2024-01-20T15:17:35.289Z,13.67
2024-01-20T15:20:05.942Z,13.53
2024-01-20T15:22:34.488Z,16.33
2024-01-20T15:25:03.105Z,11.90
2024-01-20T15:27:31.776Z,12.93
2024-01-20T15:30:00.667Z,12.30
2024-01-20T15:32:29.458Z,14.87
2024-01-20T15:34:58.010Z,14.53
2024-01-20T15:37:27.942Z,12.10
2024-01-20T15:39:57.768Z,10.47
2024-01-20T15:42:26.708Z,12.57
2024-01-20T15:44:55.086Z,15.23
2024-01-20T15:47:23.668Z,13.30
2024-01-20T15:49:52.629Z,10.50
2024-01-20T15:52:21.166Z,13.20
2024-01-20T15:54:51.044Z,13.17
2024-01-20T15:57:19.642Z,13.20
2024-01-20T15:59:48.163Z,13.93
2024-01-20T16:02:16.701Z,12.90
2024-01-20T16:04:46.110Z,15.67
2024-01-20T16:07:16.360Z,14.63
2024-01-20T16:09:45.200Z,12.20
2024-01-20T16:12:15.440Z,14.83
2024-01-20T16:14:44.121Z,12.87
2024-01-20T16:17:13.037Z,13.67
2024-01-20T16:19:41.743Z,16.03
2024-01-20T16:22:10.309Z,13.50
2024-01-20T16:24:39.014Z,15.93
2024-01-20T16:27:08.018Z,12.03
2024-01-20T16:29:37.956Z,14.67
2024-01-20T16:32:10.648Z,14.23
2024-01-20T16:34:39.444Z,17.37
2024-01-20T16:37:09.204Z,17.67
2024-01-20T16:39:38.091Z,17.53
2024-01-20T16:42:06.833Z,17.17
2024-01-20T16:44:36.877Z,16.57
2024-01-20T16:47:06.100Z,14.83
2024-01-20T16:49:35.033Z,14.37
2024-01-20T16:52:03.889Z,19.53
2024-01-20T16:54:32.624Z,19.17
2024-01-20T16:57:02.113Z,17.17
2024-01-20T16:59:31.326Z,15.03
2024-01-20T17:02:01.599Z,15.20
2024-01-20T17:04:31.682Z,18.63
2024-01-20T17:07:01.169Z,18.93
2024-01-20T17:09:30.212Z,21.13
2024-01-20T17:11:58.838Z,15.13
2024-01-20T17:14:27.361Z,15.20
2024-01-20T17:16:55.986Z,14.77
2024-01-20T17:19:31.800Z,13.27
2024-01-20T17:22:00.725Z,15.60
2024-01-20T17:24:29.443Z,17.20
2024-01-20T17:26:58.106Z,14.90
2024-01-20T17:29:29.019Z,15.03
2024-01-20T17:32:01.941Z,15.87
2024-01-20T17:34:32.347Z,16.87
2024-01-20T17:37:01.709Z,16.50
2024-01-20T17:39:31.595Z,17.50
2024-01-20T17:42:01.824Z,17.93
2024-01-20T17:44:30.820Z,20.13
2024-01-20T17:46:59.356Z,15.70
2024-01-20T17:49:28.107Z,18.37
2024-01-20T17:51:58.004Z,15.23
2024-01-20T17:54:28.733Z,18.53
2024-01-20T17:56:57.802Z,13.40
2024-01-20T17:59:26.585Z,15.37
2024-01-20T18:01:55.661Z,14.63
2024-01-20T18:04:24.760Z,17.07
2024-01-20T18:06:54.263Z,12.60
2024-01-20T18:09:25.398Z,14.80
2024-01-20T18:11:54.954Z,18.87
2024-01-20T18:14:23.608Z,15.43
2024-01-20T18:16:53.086Z,12.80
2024-01-20T18:19:21.686Z,15.43
2024-01-20T18:21:50.277Z,16.23
2024-01-20T18:24:18.940Z,14.67
2024-01-20T18:26:48.771Z,12.63
2024-01-20T18:29:17.549Z,16.63
2024-01-20T18:31:46.056Z,17.53
2024-01-20T18:34:14.733Z,14.47
2024-01-20T18:36:43.412Z,16.93
2024-01-20T18:39:12.111Z,13.67
2024-01-20T18:41:41.051Z,15.00
2024-01-20T18:44:10.872Z,17.10
2024-01-20T18:46:39.733Z,19.53
2024-01-20T18:49:08.304Z,15.43
2024-01-20T18:51:36.896Z,15.33
2024-01-20T18:54:05.895Z,14.60
2024-01-20T18:56:34.500Z,17.13
2024-01-20T18:59:03.563Z,14.37
2024-01-20T19:01:33.893Z,15.37
2024-01-20T19:04:02.514Z,18.67
2024-01-20T19:06:31.190Z,16.10
2024-01-20T19:08:59.842Z,13.97
2024-01-20T19:11:28.394Z,16.97
2024-01-20T19:13:57.795Z,18.43
2024-01-20T19:16:26.617Z,17.17
2024-01-20T19:18:56.554Z,19.20
2024-01-20T19:21:25.158Z,16.80
2024-01-20T19:23:53.648Z,17.47
2024-01-20T19:26:22.259Z,18.07
2024-01-20T19:28:50.746Z,15.67
2024-01-20T19:31:19.287Z,16.00
2024-01-20T19:33:48.557Z,20.37
2024-01-20T19:36:18.683Z,19.40
2024-01-20T19:38:47.422Z,17.37
2024-01-20T19:41:16.472Z,20.63
2024-01-20T19:43:45.734Z,18.77
2024-01-20T19:46:14.621Z,16.60
2024-01-20T19:48:43.572Z,14.37
2024-01-20T19:51:12.081Z,20.00
2024-01-20T19:53:41.957Z,17.10
2024-01-20T19:56:10.554Z,15.63
2024-01-20T19:58:39.144Z,16.17
2024-01-20T20:01:08.270Z,15.60
2024-01-20T20:03:36.904Z,19.73
2024-01-20T20:06:05.640Z,14.53
2024-01-20T20:08:34.575Z,18.63
2024-01-20T20:11:05.487Z,19.40
2024-01-20T20:13:34.016Z,18.90
2024-01-20T20:16:02.579Z,16.13
2024-01-20T20:18:34.089Z,14.83
2024-01-20T20:21:02.823Z,18.23
2024-01-20T20:23:32.732Z,15.40
2024-01-20T20:26:01.234Z,14.80
2024-01-20T20:28:31.085Z,13.17
2024-01-20T20:31:06.829Z,16.53
2024-01-20T20:33:38.416Z,16.47
2024-01-20T20:36:07.277Z,15.87
2024-01-20T20:38:35.952Z,18.60
2024-01-20T20:41:04.454Z,17.00
2024-01-20T20:43:35.769Z,18.27
2024-01-20T20:46:04.784Z,16.53
2024-01-20T20:48:33.385Z,12.93
2024-01-20T20:51:02.077Z,13.77
2024-01-20T20:53:31.352Z,16.13
2024-01-20T20:56:00.385Z,15.30
2024-01-20T20:58:29.517Z,16.97
2024-01-20T21:01:01.915Z,20.40
2024-01-20T21:03:30.852Z,20.63
2024-01-20T21:05:59.666Z,16.00
2024-01-20T21:08:28.243Z,14.80
2024-01-20T21:10:56.774Z,14.37
2024-01-20T21:13:25.707Z,16.20
2024-01-20T21:15:54.260Z,14.77
2024-01-20T21:18:24.251Z,17.13
2024-01-20T21:20:52.959Z,15.23
2024-01-20T21:23:21.558Z,15.50
2024-01-20T21:25:50.221Z,15.40
2024-01-20T21:28:19.512Z,17.17
2024-01-20T21:30:48.210Z,18.23
2024-01-20T21:33:17.201Z,17.23
2024-01-20T21:35:47.140Z,16.73
2024-01-20T21:38:15.945Z,15.73
2024-01-20T21:40:47.538Z,14.83
2024-01-20T21:43:16.785Z,16.03
2024-01-20T21:45:45.518Z,16.33
2024-01-20T21:48:14.917Z,14.23
2024-01-20T21:50:44.205Z,16.90
2024-01-20T21:53:14.483Z,17.87
2024-01-20T21:55:43.329Z,13.63
2024-01-20T21:58:12.245Z,17.20
2024-01-20T22:00:41.381Z,15.40
2024-01-20T22:03:10.048Z,16.63
2024-01-20T22:05:39.587Z,15.83
2024-01-20T22:08:08.553Z,16.97
2024-01-20T22:10:38.449Z,20.73
2024-01-20T22:13:07.125Z,18.07
2024-01-20T22:15:35.701Z,15.90
2024-01-20T22:18:04.660Z,15.43
2024-01-20T22:20:34.193Z,17.97
2024-01-20T22:23:03.357Z,14.90
2024-01-20T22:25:31.870Z,17.70
2024-01-20T22:28:01.749Z,17.57
2024-01-20T22:30:30.796Z,19.10
2024-01-20T22:32:59.271Z,19.93
2024-01-20T22:35:30.609Z,18.63
2024-01-20T22:37:59.479Z,20.60
2024-01-20T22:40:29.553Z,18.13
2024-01-20T22:42:58.313Z,17.83
2024-01-20T22:45:28.380Z,19.07
2024-01-20T22:47:57.075Z,20.20
2024-01-20T22:50:25.894Z,24.37
2024-01-20T22:52:54.857Z,27.77
2024-01-20T22:55:23.342Z,26.73
2024-01-20T22:57:52.275Z,21.53
2024-01-20T23:00:26.983Z,19.03
2024-01-20T23:02:57.760Z,21.17
2024-01-20T23:05:27.161Z,19.23
2024-01-20T23:07:55.803Z,20.70
2024-01-20T23:10:24.389Z,22.73
2024-01-20T23:12:53.152Z,17.50
2024-01-20T23:15:21.814Z,21.33
2024-01-20T23:17:50.787Z,15.90
2024-01-20T23:20:20.687Z,20.33
2024-01-20T23:22:49.701Z,19.30
2024-01-20T23:25:18.639Z,15.50
2024-01-20T23:27:47.110Z,17.00
2024-01-20T23:30:16.016Z,19.13
2024-01-20T23:32:44.941Z,20.57
2024-01-20T23:35:13.464Z,16.97
2024-01-20T23:37:43.318Z,17.33
2024-01-20T23:40:12.752Z,25.77
2024-01-20T23:42:41.350Z,20.43
2024-01-20T23:45:10.956Z,17.97
2024-01-20T23:47:40.212Z,21.13
2024-01-20T23:50:09.060Z,16.57
2024-01-20T23:52:37.597Z,17.87
2024-01-20T23:55:08.357Z,17.27
2024-01-20T23:57:39.771Z,19.20
